createdAt,value
2017-12-31T00:01:48.291Z,6.33
2017-12-31T00:04:18.618Z,7.00
2017-12-31T00:06:49.759Z,7.80
2017-12-31T00:09:20.575Z,7.33
2017-12-31T00:11:50.891Z,7.93
2017-12-31T00:14:21.220Z,6.40
2017-12-31T00:16:51.591Z,7.50
2017-12-31T00:19:22.015Z,6.60
2017-12-31T00:21:53.343Z,7.10
2017-12-31T00:24:23.715Z,7.17
2017-12-31T00:26:54.303Z,6.67
2017-12-31T00:29:25.438Z,7.30
2017-12-31T00:31:55.880Z,7.60
2017-12-31T00:34:26.973Z,6.70
2017-12-31T00:36:57.298Z,7.70
2017-12-31T00:39:27.969Z,7.63
2017-12-31T00:41:59.061Z,6.10
2017-12-31T00:44:29.451Z,6.50
2017-12-31T00:47:00.559Z,7.50
2017-12-31T00:49:30.922Z,6.37
2017-12-31T00:52:01.248Z,7.23
2017-12-31T00:54:32.473Z,6.77
2017-12-31T00:57:03.971Z,6.00
2017-12-31T00:59:34.564Z,7.33
2017-12-31T01:02:05.742Z,7.43
2017-12-31T01:04:36.139Z,5.83
2017-12-31T01:07:06.516Z,7.00
2017-12-31T01:09:37.158Z,6.93
2017-12-31T01:12:07.566Z,7.17
2017-12-31T01:14:38.103Z,7.00
2017-12-31T01:17:09.223Z,7.63
2017-12-31T01:19:39.635Z,6.67
2017-12-31T01:22:10.019Z,6.67
2017-12-31T01:24:40.336Z,6.67
2017-12-31T01:27:11.108Z,6.23
2017-12-31T01:29:42.386Z,6.70
2017-12-31T01:32:12.775Z,7.00
2017-12-31T01:34:43.938Z,7.00
2017-12-31T01:37:14.287Z,7.03
2017-12-31T01:39:44.850Z,7.67
2017-12-31T01:42:15.203Z,7.53
2017-12-31T01:44:46.495Z,7.33
2017-12-31T01:47:16.903Z,7.50
2017-12-31T01:49:48.027Z,8.33
2017-12-31T01:52:18.365Z,7.80
2017-12-31T01:54:48.691Z,7.33
2017-12-31T01:57:19.239Z,8.60
2017-12-31T01:59:49.623Z,8.10
2017-12-31T02:02:20.245Z,7.40
2017-12-31T02:04:51.372Z,8.17
2017-12-31T02:07:21.710Z,7.10
2017-12-31T02:09:52.893Z,7.37
2017-12-31T02:12:23.227Z,7.33
2017-12-31T02:14:53.700Z,7.90
2017-12-31T02:17:24.933Z,7.73
2017-12-31T02:19:55.370Z,7.43
2017-12-31T02:22:26.458Z,6.77
2017-12-31T02:24:56.867Z,7.00
2017-12-31T02:27:27.468Z,7.27
2017-12-31T02:29:58.668Z,7.00
2017-12-31T02:32:29.617Z,8.13
2017-12-31T02:35:00.041Z,7.10
2017-12-31T02:37:30.370Z,7.67
2017-12-31T02:40:00.703Z,6.90
2017-12-31T02:42:31.010Z,7.20
2017-12-31T02:45:01.564Z,8.53
2017-12-31T02:47:31.965Z,7.30
2017-12-31T02:50:02.340Z,7.40
2017-12-31T02:52:33.431Z,8.80
2017-12-31T02:55:03.797Z,8.53
2017-12-31T02:57:34.906Z,8.63
2017-12-31T03:00:05.235Z,8.23
2017-12-31T03:02:35.569Z,7.80
2017-12-31T03:05:05.890Z,7.20
2017-12-31T03:07:36.382Z,8.40
2017-12-31T03:10:06.769Z,8.13
2017-12-31T03:12:37.854Z,8.03
2017-12-31T03:15:08.280Z,8.10
2017-12-31T03:17:38.658Z,8.17
2017-12-31T03:20:09.084Z,7.90
2017-12-31T03:22:40.302Z,8.40
2017-12-31T03:25:10.733Z,7.97
2017-12-31T03:27:41.075Z,8.43
2017-12-31T03:30:11.395Z,8.70
2017-12-31T03:32:41.931Z,9.00
2017-12-31T03:35:13.030Z,7.93
2017-12-31T03:37:44.322Z,8.43
2017-12-31T03:40:14.871Z,8.20
2017-12-31T03:42:45.374Z,8.17
2017-12-31T03:45:16.009Z,7.97
2017-12-31T03:47:46.359Z,8.40
2017-12-31T03:50:16.870Z,9.17
2017-12-31T03:52:48.020Z,7.83
2017-12-31T03:55:19.139Z,6.90
2017-12-31T03:57:49.490Z,8.33
2017-12-31T04:00:20.888Z,7.10
2017-12-31T04:02:51.427Z,7.80
2017-12-31T04:05:22.584Z,7.93
2017-12-31T04:07:52.956Z,7.30
2017-12-31T04:10:23.350Z,7.47
2017-12-31T04:12:53.678Z,7.10
2017-12-31T04:15:24.849Z,6.97
2017-12-31T04:17:55.180Z,7.40
2017-12-31T04:20:25.754Z,7.23
2017-12-31T04:22:56.081Z,6.80
2017-12-31T04:25:26.468Z,7.03
2017-12-31T04:27:56.811Z,6.70
2017-12-31T04:30:27.151Z,5.73
2017-12-31T04:32:57.768Z,6.07
2017-12-31T04:35:28.159Z,6.33
2017-12-31T04:37:58.619Z,6.27
2017-12-31T04:40:29.845Z,5.70
2017-12-31T04:43:00.176Z,5.07
2017-12-31T04:45:31.936Z,5.40
2017-12-31T04:48:02.335Z,5.23
2017-12-31T04:50:32.839Z,4.80
2017-12-31T04:53:03.920Z,4.60
2017-12-31T04:55:34.326Z,4.93
2017-12-31T04:58:04.712Z,4.60
2017-12-31T05:00:35.003Z,5.40
2017-12-31T05:03:05.370Z,4.63
2017-12-31T05:05:35.728Z,5.97
2017-12-31T05:08:06.333Z,4.80
2017-12-31T05:10:37.479Z,4.30
2017-12-31T05:13:08.640Z,4.50
2017-12-31T05:15:39.012Z,4.53
2017-12-31T05:18:09.369Z,4.73
2017-12-31T05:20:39.904Z,5.57
2017-12-31T05:23:11.019Z,5.87
2017-12-31T05:25:41.426Z,6.07
2017-12-31T05:28:11.743Z,5.57
2017-12-31T05:30:42.116Z,5.10
2017-12-31T05:33:12.513Z,5.90
2017-12-31T05:35:42.885Z,6.50
2017-12-31T05:38:14.218Z,4.70
2017-12-31T05:40:45.314Z,4.20
2017-12-31T05:43:15.725Z,5.23
2017-12-31T05:45:46.132Z,4.53
2017-12-31T05:48:17.225Z,4.60
2017-12-31T05:50:47.641Z,3.40
2017-12-31T05:53:17.962Z,4.53
2017-12-31T05:55:48.552Z,5.30
2017-12-31T05:58:19.663Z,4.70
2017-12-31T06:00:50.010Z,4.80
2017-12-31T06:03:20.379Z,5.27
2017-12-31T06:05:50.724Z,5.07
2017-12-31T06:08:21.278Z,5.10
2017-12-31T06:10:52.382Z,4.90
2017-12-31T06:13:22.958Z,5.13
2017-12-31T06:15:54.146Z,5.93
2017-12-31T06:18:24.504Z,5.83
2017-12-31T06:20:54.851Z,5.57
2017-12-31T06:23:25.964Z,6.37
2017-12-31T06:25:58.063Z,6.80
2017-12-31T06:28:29.172Z,6.80
2017-12-31T06:30:59.528Z,5.63
2017-12-31T06:33:30.672Z,5.30
2017-12-31T06:36:01.790Z,4.90
2017-12-31T06:38:32.232Z,5.03
2017-12-31T06:41:03.331Z,6.20
2017-12-31T06:43:33.802Z,5.37
2017-12-31T06:46:04.192Z,4.20
2017-12-31T06:48:34.495Z,4.37
2017-12-31T06:51:04.859Z,4.30
2017-12-31T06:53:35.215Z,5.70
2017-12-31T06:56:06.548Z,5.10
2017-12-31T06:58:37.698Z,5.03
2017-12-31T07:01:08.842Z,5.37
2017-12-31T07:03:39.924Z,5.33
2017-12-31T07:06:10.293Z,4.57
2017-12-31T07:08:40.834Z,4.53
2017-12-31T07:11:11.964Z,4.70
2017-12-31T07:13:42.472Z,4.50
2017-12-31T07:16:12.805Z,4.23
2017-12-31T07:18:43.206Z,4.33
2017-12-31T07:21:13.536Z,4.80
2017-12-31T07:23:43.823Z,5.10
2017-12-31T07:26:15.229Z,5.60
2017-12-31T07:28:45.558Z,5.90
2017-12-31T07:31:15.880Z,5.20
2017-12-31T07:33:46.259Z,5.57
2017-12-31T07:36:16.627Z,6.03
2017-12-31T07:38:47.079Z,5.70
2017-12-31T07:41:18.230Z,6.53
2017-12-31T07:43:49.653Z,5.87
2017-12-31T07:46:20.761Z,5.77
2017-12-31T07:48:51.087Z,4.90
2017-12-31T07:51:23.332Z,5.23
2017-12-31T07:53:53.664Z,5.80
2017-12-31T07:56:24.260Z,4.70
2017-12-31T07:58:54.589Z,3.93
2017-12-31T08:01:25.787Z,4.17
2017-12-31T08:03:56.100Z,5.17
2017-12-31T08:06:26.455Z,5.50
2017-12-31T08:08:56.775Z,4.43
2017-12-31T08:11:27.097Z,4.60
2017-12-31T08:13:57.655Z,4.33
2017-12-31T08:16:28.770Z,5.37
2017-12-31T08:18:59.093Z,6.27
2017-12-31T08:21:29.452Z,5.40
2017-12-31T08:24:00.625Z,5.90
2017-12-31T08:26:31.120Z,5.13
2017-12-31T08:29:02.250Z,6.67
2017-12-31T08:31:32.791Z,4.97
2017-12-31T08:34:03.929Z,5.40
2017-12-31T08:36:34.372Z,5.80
2017-12-31T08:39:04.744Z,6.30
2017-12-31T08:41:35.096Z,6.67
2017-12-31T08:44:05.524Z,6.13
2017-12-31T08:46:35.983Z,5.60
2017-12-31T08:49:07.118Z,4.53
2017-12-31T08:51:38.294Z,5.20
2017-12-31T08:54:08.595Z,5.63
2017-12-31T08:56:39.684Z,3.30
2017-12-31T08:59:10.016Z,3.70
2017-12-31T09:01:40.540Z,3.23
2017-12-31T09:04:10.851Z,3.67
2017-12-31T09:06:41.182Z,5.17
2017-12-31T09:09:11.512Z,4.53
2017-12-31T09:11:41.923Z,3.23
2017-12-31T09:14:12.452Z,4.20
2017-12-31T09:16:42.790Z,4.20
2017-12-31T09:19:13.183Z,3.67
2017-12-31T09:21:43.589Z,4.90
2017-12-31T09:24:14.682Z,4.03
2017-12-31T09:26:45.078Z,4.00
2017-12-31T09:29:15.482Z,4.67
2017-12-31T09:31:46.818Z,4.40
2017-12-31T09:34:17.177Z,4.77
2017-12-31T09:36:47.510Z,4.00
2017-12-31T09:39:17.874Z,5.23
2017-12-31T09:41:48.216Z,4.97
2017-12-31T09:44:18.725Z,5.00
2017-12-31T09:46:49.086Z,4.53
2017-12-31T09:49:20.418Z,4.50
2017-12-31T09:51:51.547Z,5.13
2017-12-31T09:54:21.949Z,6.30
2017-12-31T09:56:52.287Z,5.67
2017-12-31T09:59:22.686Z,4.87
2017-12-31T10:01:53.992Z,6.30
2017-12-31T10:04:25.136Z,6.07
2017-12-31T10:06:56.278Z,6.30
2017-12-31T10:09:27.347Z,6.37
2017-12-31T10:11:57.704Z,4.97
2017-12-31T10:14:28.130Z,5.67
2017-12-31T10:16:58.459Z,5.63
2017-12-31T10:19:28.798Z,5.40
2017-12-31T10:21:59.117Z,5.90
2017-12-31T10:24:29.419Z,6.23
2017-12-31T10:27:00.549Z,6.30
2017-12-31T10:29:30.880Z,5.50
2017-12-31T10:32:02.176Z,6.80
2017-12-31T10:34:33.299Z,5.53
2017-12-31T10:37:05.206Z,6.80
2017-12-31T10:39:36.381Z,6.40
2017-12-31T10:42:06.719Z,7.77
2017-12-31T10:44:37.023Z,7.03
2017-12-31T10:47:07.430Z,6.13
2017-12-31T10:49:37.924Z,6.80
2017-12-31T10:52:08.270Z,6.60
2017-12-31T10:54:39.563Z,5.67
2017-12-31T10:57:09.927Z,5.37
2017-12-31T10:59:42.461Z,6.00
2017-12-31T11:02:12.786Z,5.80
2017-12-31T11:04:43.118Z,6.03
2017-12-31T11:07:13.442Z,6.63
2017-12-31T11:09:43.768Z,6.13
2017-12-31T11:12:14.172Z,6.47
2017-12-31T11:14:44.569Z,7.30
2017-12-31T11:17:14.915Z,7.70
2017-12-31T11:19:46.231Z,7.03
2017-12-31T11:22:17.303Z,8.80
2017-12-31T11:24:48.396Z,8.43
2017-12-31T11:27:18.786Z,9.17
2017-12-31T11:29:49.075Z,7.13
2017-12-31T11:32:20.365Z,8.10
2017-12-31T11:34:50.767Z,7.70
2017-12-31T11:37:21.269Z,7.60
2017-12-31T11:39:52.366Z,8.10
2017-12-31T11:42:22.698Z,9.00
2017-12-31T11:44:53.024Z,9.00
2017-12-31T11:47:23.331Z,9.43
2017-12-31T11:49:53.800Z,9.77
2017-12-31T11:52:24.883Z,9.70
2017-12-31T11:54:55.418Z,10.83
2017-12-31T11:57:26.563Z,11.40
2017-12-31T11:59:56.862Z,11.70
2017-12-31T12:02:27.190Z,10.70
2017-12-31T12:04:57.538Z,10.20
2017-12-31T12:07:28.076Z,11.10
2017-12-31T12:09:58.390Z,9.53
2017-12-31T12:12:28.835Z,10.53
2017-12-31T12:14:59.189Z,10.60
2017-12-31T12:17:30.374Z,9.87
2017-12-31T12:20:00.722Z,10.43
2017-12-31T12:22:31.059Z,9.93
2017-12-31T12:25:01.616Z,9.60
2017-12-31T12:27:34.480Z,10.23
2017-12-31T12:30:04.837Z,10.93
2017-12-31T12:32:35.927Z,11.00
2017-12-31T12:35:06.256Z,10.67
2017-12-31T12:37:36.788Z,10.43
2017-12-31T12:40:07.115Z,11.13
2017-12-31T12:42:37.430Z,10.33
2017-12-31T12:45:07.765Z,10.70
2017-12-31T12:47:38.138Z,11.60
2017-12-31T12:50:08.651Z,11.00
2017-12-31T12:52:39.818Z,10.90
2017-12-31T12:55:10.209Z,10.67
2017-12-31T12:57:40.541Z,10.00
2017-12-31T13:00:11.643Z,10.30
2017-12-31T13:02:42.038Z,8.80
2017-12-31T13:05:12.423Z,8.73
2017-12-31T13:07:43.071Z,9.03
2017-12-31T13:10:14.270Z,8.97
2017-12-31T13:12:44.626Z,7.00
2017-12-31T13:15:14.950Z,8.67
2017-12-31T13:17:45.307Z,8.47
2017-12-31T13:20:15.698Z,9.57
2017-12-31T13:22:46.066Z,8.70
2017-12-31T13:25:16.660Z,10.27
2017-12-31T13:27:47.772Z,9.90
2017-12-31T13:30:18.173Z,9.10
2017-12-31T13:32:48.503Z,10.30
2017-12-31T13:35:18.885Z,9.53
2017-12-31T13:37:50.224Z,10.17
2017-12-31T13:40:20.615Z,9.23
2017-12-31T13:42:51.200Z,7.97
2017-12-31T13:45:22.279Z,7.87
2017-12-31T13:47:52.632Z,8.37
2017-12-31T13:50:22.947Z,7.77
2017-12-31T13:52:53.247Z,7.83
2017-12-31T13:55:23.890Z,8.80
2017-12-31T13:57:54.253Z,7.67
2017-12-31T14:00:24.589Z,9.07
2017-12-31T14:02:55.751Z,8.00
2017-12-31T14:05:26.814Z,7.03
2017-12-31T14:07:57.390Z,8.77
2017-12-31T14:10:27.713Z,7.73
2017-12-31T14:12:58.195Z,8.70
2017-12-31T14:15:29.370Z,7.70
2017-12-31T14:17:59.726Z,7.30
2017-12-31T14:20:30.808Z,8.03
2017-12-31T14:23:01.188Z,8.10
2017-12-31T14:25:32.527Z,9.10
2017-12-31T14:28:03.643Z,8.40
2017-12-31T14:30:34.028Z,8.03
2017-12-31T14:33:04.431Z,9.00
2017-12-31T14:35:35.518Z,8.73
2017-12-31T14:38:05.866Z,8.13
2017-12-31T14:40:36.206Z,9.77
2017-12-31T14:43:06.742Z,7.83
2017-12-31T14:45:37.116Z,9.17
2017-12-31T14:48:07.460Z,8.03
2017-12-31T14:50:37.813Z,7.77
2017-12-31T14:53:08.148Z,8.70
2017-12-31T14:55:39.547Z,8.70
2017-12-31T14:58:09.867Z,7.10
2017-12-31T15:00:40.442Z,7.43
2017-12-31T15:03:11.556Z,8.43
2017-12-31T15:05:41.877Z,6.23
2017-12-31T15:08:12.201Z,7.20
2017-12-31T15:10:42.526Z,7.30
2017-12-31T15:13:12.984Z,6.87
2017-12-31T15:15:43.303Z,6.90
2017-12-31T15:18:13.595Z,5.93
2017-12-31T15:20:43.885Z,6.30
2017-12-31T15:23:15.595Z,5.60
2017-12-31T15:25:46.110Z,5.70
2017-12-31T15:28:16.472Z,6.50
2017-12-31T15:30:47.924Z,6.30
2017-12-31T15:33:19.054Z,6.30
2017-12-31T15:35:49.439Z,6.70
2017-12-31T15:38:19.775Z,6.20
2017-12-31T15:40:50.147Z,7.30
2017-12-31T15:43:21.489Z,5.33
2017-12-31T15:45:52.643Z,5.80
2017-12-31T15:48:23.803Z,5.80
2017-12-31T15:50:54.141Z,5.40
2017-12-31T15:53:24.546Z,5.40
2017-12-31T15:55:54.893Z,5.33
2017-12-31T15:58:25.246Z,5.30
2017-12-31T16:00:55.778Z,5.47
2017-12-31T16:03:26.986Z,5.87
2017-12-31T16:05:57.299Z,6.00
2017-12-31T16:08:27.639Z,5.30
2017-12-31T16:10:57.976Z,6.53
2017-12-31T16:13:28.377Z,6.27
2017-12-31T16:15:58.763Z,5.60
2017-12-31T16:18:29.131Z,5.67
2017-12-31T16:20:59.472Z,5.80
2017-12-31T16:23:29.855Z,5.60
2017-12-31T16:26:00.929Z,5.77
2017-12-31T16:28:31.298Z,5.50
2017-12-31T16:31:01.838Z,5.40
2017-12-31T16:33:32.207Z,5.50
2017-12-31T16:36:02.580Z,5.70
2017-12-31T16:38:33.003Z,5.27
2017-12-31T16:41:03.326Z,5.23
2017-12-31T16:43:33.712Z,5.77
2017-12-31T16:46:04.045Z,6.33
2017-12-31T16:48:34.515Z,6.43
2017-12-31T16:51:04.840Z,5.53
2017-12-31T16:53:35.183Z,6.20
2017-12-31T16:56:06.317Z,6.23
2017-12-31T16:58:37.404Z,6.87
2017-12-31T17:01:08.059Z,5.13
2017-12-31T17:03:38.395Z,6.23
2017-12-31T17:06:08.940Z,4.87
2017-12-31T17:08:40.045Z,5.40
2017-12-31T17:11:10.439Z,5.13
2017-12-31T17:13:40.786Z,6.13
2017-12-31T17:16:11.138Z,5.57
2017-12-31T17:18:41.681Z,4.80
2017-12-31T17:21:12.800Z,4.40
2017-12-31T17:23:43.110Z,4.63
2017-12-31T17:26:14.260Z,4.53
2017-12-31T17:28:44.595Z,5.80
2017-12-31T17:31:15.190Z,5.70
2017-12-31T17:33:45.538Z,5.00
2017-12-31T17:36:15.998Z,5.77
2017-12-31T17:38:46.359Z,5.33
2017-12-31T17:41:17.036Z,5.70
2017-12-31T17:43:47.400Z,5.00
2017-12-31T17:46:18.528Z,5.13
2017-12-31T17:48:49.828Z,4.33
2017-12-31T17:51:20.952Z,4.80
2017-12-31T17:53:51.334Z,4.70
2017-12-31T17:56:21.770Z,5.27
2017-12-31T17:58:52.942Z,5.53
2017-12-31T18:01:23.546Z,5.13
2017-12-31T18:03:54.699Z,4.90
2017-12-31T18:06:26.030Z,4.90
2017-12-31T18:08:56.348Z,5.17
2017-12-31T18:11:26.655Z,4.57
2017-12-31T18:13:56.983Z,4.80
2017-12-31T18:16:27.315Z,4.10
2017-12-31T18:18:57.854Z,4.70
2017-12-31T18:21:28.999Z,4.30
2017-12-31T18:24:00.244Z,4.30
2017-12-31T18:26:30.592Z,5.20
2017-12-31T18:29:01.758Z,3.90
2017-12-31T18:31:32.093Z,4.20
2017-12-31T18:34:02.427Z,4.17
2017-12-31T18:36:32.990Z,4.67
2017-12-31T18:39:04.374Z,4.70
2017-12-31T18:41:34.757Z,3.50
2017-12-31T18:44:05.111Z,5.30
2017-12-31T18:46:36.216Z,4.17
2017-12-31T18:49:06.871Z,4.93
2017-12-31T18:51:38.016Z,4.40
2017-12-31T18:54:09.363Z,4.20
2017-12-31T18:56:39.845Z,4.23
2017-12-31T18:59:10.179Z,5.77
2017-12-31T19:01:40.544Z,4.90
2017-12-31T19:04:11.700Z,4.10
2017-12-31T19:06:42.989Z,4.00
2017-12-31T19:09:13.336Z,5.00
2017-12-31T19:11:43.659Z,4.63
2017-12-31T19:14:14.056Z,4.70
2017-12-31T19:16:44.424Z,4.20
2017-12-31T19:19:14.798Z,4.33
2017-12-31T19:21:45.168Z,3.93
2017-12-31T19:24:15.772Z,4.83
2017-12-31T19:26:46.103Z,4.77
2017-12-31T19:29:16.428Z,4.97
2017-12-31T19:31:46.745Z,4.97
2017-12-31T19:34:17.087Z,5.23
2017-12-31T19:36:47.498Z,5.50
2017-12-31T19:39:18.815Z,4.70
2017-12-31T19:41:49.513Z,5.00
2017-12-31T19:44:20.642Z,4.73
2017-12-31T19:46:53.455Z,4.90
2017-12-31T19:49:24.592Z,4.90
2017-12-31T19:51:55.781Z,4.97
2017-12-31T19:54:26.451Z,5.63
2017-12-31T19:56:57.559Z,4.67
2017-12-31T19:59:28.132Z,5.07
2017-12-31T20:01:59.265Z,5.30
2017-12-31T20:04:29.663Z,5.70
2017-12-31T20:07:00.428Z,6.33
2017-12-31T20:09:30.858Z,5.47
2017-12-31T20:12:01.293Z,5.57
2017-12-31T20:14:32.492Z,5.10
2017-12-31T20:17:02.828Z,5.20
2017-12-31T20:19:33.211Z,5.00
2017-12-31T20:22:03.558Z,6.17
2017-12-31T20:24:34.094Z,4.93
2017-12-31T20:27:04.418Z,5.87
2017-12-31T20:29:34.811Z,5.40
2017-12-31T20:32:05.209Z,6.40
2017-12-31T20:34:36.605Z,5.67
2017-12-31T20:37:07.194Z,5.67
2017-12-31T20:39:38.371Z,6.00
2017-12-31T20:42:09.042Z,4.60
2017-12-31T20:44:39.353Z,5.33
2017-12-31T20:47:09.691Z,5.90
2017-12-31T20:49:40.282Z,6.10
2017-12-31T20:52:10.584Z,4.70
2017-12-31T20:54:42.217Z,5.67
2017-12-31T20:57:13.457Z,6.10
2017-12-31T20:59:43.956Z,5.40
2017-12-31T21:02:15.108Z,5.40
2017-12-31T21:04:45.614Z,5.60
2017-12-31T21:07:15.952Z,6.00
2017-12-31T21:09:46.319Z,5.67
2017-12-31T21:12:17.663Z,5.40
2017-12-31T21:14:47.992Z,5.40
2017-12-31T21:17:19.137Z,5.33
2017-12-31T21:19:50.219Z,5.53
2017-12-31T21:22:20.539Z,6.27
2017-12-31T21:24:51.127Z,5.93
2017-12-31T21:27:21.435Z,5.30
2017-12-31T21:29:51.939Z,6.40
2017-12-31T21:32:22.295Z,7.77
2017-12-31T21:34:52.694Z,6.70
2017-12-31T21:37:23.088Z,6.20
2017-12-31T21:39:53.395Z,6.70
2017-12-31T21:42:24.644Z,6.77
2017-12-31T21:44:55.750Z,6.53
2017-12-31T21:47:26.293Z,6.13
2017-12-31T21:49:57.403Z,6.07
2017-12-31T21:52:27.722Z,7.77
2017-12-31T21:54:58.095Z,6.80
2017-12-31T21:57:29.184Z,6.10
2017-12-31T21:59:59.665Z,6.00
2017-12-31T22:02:30.855Z,7.57
2017-12-31T22:05:01.220Z,7.77
2017-12-31T22:07:31.721Z,6.87
2017-12-31T22:10:02.030Z,6.50
2017-12-31T22:12:32.608Z,5.90
2017-12-31T22:15:03.722Z,6.93
2017-12-31T22:17:34.285Z,7.80
2017-12-31T22:20:05.455Z,7.77
2017-12-31T22:22:35.770Z,6.70
2017-12-31T22:25:07.412Z,7.27
2017-12-31T22:27:38.544Z,7.00
2017-12-31T22:30:09.177Z,7.30
2017-12-31T22:32:40.315Z,7.73
2017-12-31T22:35:10.616Z,6.00
2017-12-31T22:37:41.045Z,6.20
2017-12-31T22:40:11.421Z,7.10
2017-12-31T22:42:41.902Z,7.40
2017-12-31T22:45:12.287Z,7.90
2017-12-31T22:47:42.877Z,6.73
2017-12-31T22:50:13.963Z,8.27
2017-12-31T22:52:44.350Z,6.80
2017-12-31T22:55:15.503Z,7.10
2017-12-31T22:57:46.632Z,6.90
2017-12-31T23:00:17.159Z,8.27
2017-12-31T23:02:47.467Z,8.23
2017-12-31T23:05:17.912Z,6.93
2017-12-31T23:07:48.207Z,7.27
2017-12-31T23:10:18.533Z,6.30
2017-12-31T23:12:48.919Z,6.77
2017-12-31T23:15:19.262Z,6.40
2017-12-31T23:17:49.594Z,8.30
2017-12-31T23:20:19.990Z,6.80
2017-12-31T23:22:50.333Z,7.87
2017-12-31T23:25:20.671Z,7.57
2017-12-31T23:27:50.987Z,7.30
2017-12-31T23:30:21.458Z,7.20
2017-12-31T23:32:51.828Z,7.30
2017-12-31T23:35:22.416Z,7.37
2017-12-31T23:37:53.520Z,7.70
2017-12-31T23:40:23.847Z,7.27
2017-12-31T23:42:54.173Z,7.80
2017-12-31T23:45:24.563Z,7.70
2017-12-31T23:47:55.127Z,8.77
2017-12-31T23:50:25.488Z,7.90
2017-12-31T23:52:56.596Z,7.70
2017-12-31T23:55:26.899Z,7.90
2017-12-31T23:57:57.297Z,8.17
